createdAt,value
2022-08-20T00:00:25.269Z,23.90
2022-08-20T00:02:55.432Z,23.90
2022-08-20T00:05:29.623Z,23.80
2022-08-20T00:07:58.887Z,23.80
2022-08-20T00:10:28.257Z,23.70
2022-08-20T00:12:57.432Z,23.70
2022-08-20T00:15:29.532Z,23.60
2022-08-20T00:17:58.424Z,23.60
2022-08-20T00:20:31.447Z,23.60
2022-08-20T00:23:00.243Z,23.60
2022-08-20T00:25:29.592Z,23.70
2022-08-20T00:27:58.667Z,23.60
2022-08-20T00:30:28.595Z,23.60
2022-08-20T00:32:59.735Z,23.60
2022-08-20T00:35:32.246Z,23.60
2022-08-20T00:38:00.999Z,23.50
2022-08-20T00:40:31.460Z,23.50
2022-08-20T00:43:02.212Z,23.50
2022-08-20T00:45:33.663Z,23.40
2022-08-20T00:48:01.945Z,23.40
2022-08-20T00:50:35.355Z,23.40
2022-08-20T00:53:07.569Z,23.40
2022-08-20T00:55:37.109Z,23.30
2022-08-20T00:58:09.697Z,23.30
2022-08-20T01:00:40.620Z,23.30
2022-08-20T01:03:11.398Z,23.30
2022-08-20T01:05:45.296Z,23.30
2022-08-20T01:08:14.236Z,23.30
2022-08-20T01:10:44.775Z,23.30
2022-08-20T01:13:18.314Z,23.30
2022-08-20T01:15:49.151Z,23.30
2022-08-20T01:18:20.250Z,23.20
2022-08-20T01:20:52.499Z,23.20
2022-08-20T01:23:30.329Z,23.20
2022-08-20T01:26:06.832Z,23.20
2022-08-20T01:28:40.264Z,23.20
2022-08-20T01:31:11.097Z,23.20
2022-08-20T01:33:39.561Z,23.20
2022-08-20T01:36:11.305Z,23.20
2022-08-20T01:38:41.797Z,23.20
2022-08-20T01:41:35.254Z,23.20
2022-08-20T01:44:04.101Z,23.20
2022-08-20T01:46:43.655Z,23.10
2022-08-20T01:49:21.050Z,23.20
2022-08-20T01:51:52.701Z,23.20
2022-08-20T01:54:21.384Z,23.10
2022-08-20T01:56:57.492Z,23.10
2022-08-20T01:59:25.780Z,23.10
2022-08-20T02:01:54.422Z,23.10
2022-08-20T02:04:22.773Z,23.10
2022-08-20T02:06:57.088Z,23.10
2022-08-20T02:09:27.411Z,23.10
2022-08-20T02:11:57.660Z,23.10
2022-08-20T02:14:26.600Z,23.10
2022-08-20T02:16:55.718Z,23.10
2022-08-20T02:19:27.177Z,23.00
2022-08-20T02:21:59.902Z,23.00
2022-08-20T02:24:28.112Z,23.00
2022-08-20T02:26:57.793Z,22.90
2022-08-20T02:29:26.263Z,23.00
2022-08-20T02:32:24.255Z,22.90
2022-08-20T02:34:43.564Z,22.90
2022-08-20T02:37:14.613Z,22.90
2022-08-20T02:39:42.883Z,22.80
2022-08-20T02:42:13.386Z,22.70
2022-08-20T02:44:41.572Z,22.70
2022-08-20T02:47:09.681Z,22.70
2022-08-20T02:49:37.847Z,22.70
2022-08-20T02:52:06.195Z,22.60
2022-08-20T02:54:34.268Z,22.60
2022-08-20T02:57:03.772Z,22.70
2022-08-20T02:59:33.643Z,22.60
2022-08-20T03:02:02.549Z,22.70
2022-08-20T03:04:31.130Z,22.70
2022-08-20T03:07:00.163Z,22.70
2022-08-20T03:09:28.363Z,22.70
2022-08-20T03:11:56.487Z,22.60
2022-08-20T03:14:25.113Z,22.60
2022-08-20T03:16:54.569Z,22.50
2022-08-20T03:19:23.101Z,22.50
2022-08-20T03:21:51.293Z,22.50
2022-08-20T03:24:19.471Z,22.40
2022-08-20T03:26:47.674Z,22.40
2022-08-20T03:29:15.778Z,22.30
2022-08-20T03:31:43.999Z,22.30
2022-08-20T03:34:13.647Z,22.30
2022-08-20T03:36:41.911Z,22.30
2022-08-20T03:39:13.472Z,22.30
2022-08-20T03:41:41.696Z,22.30
2022-08-20T03:44:10.209Z,22.30
2022-08-20T03:46:39.091Z,22.40
2022-08-20T03:49:07.483Z,22.40
2022-08-20T03:51:57.050Z,22.40
2022-08-20T03:54:29.131Z,22.40
2022-08-20T03:57:00.827Z,22.40
2022-08-20T03:59:29.005Z,22.40
2022-08-20T04:01:57.250Z,22.40
2022-08-20T04:04:25.343Z,22.40
2022-08-20T04:06:55.724Z,22.40
2022-08-20T04:09:23.825Z,22.40
2022-08-20T04:12:01.010Z,22.40
2022-08-20T04:14:29.442Z,22.40
2022-08-20T04:16:58.266Z,22.40
2022-08-20T04:19:28.342Z,22.40
2022-08-20T04:22:00.877Z,22.40
2022-08-20T04:24:32.483Z,22.40
2022-08-20T04:27:02.637Z,22.40
2022-08-20T04:29:32.484Z,22.40
2022-08-20T04:32:05.627Z,22.50
2022-08-20T04:34:34.838Z,22.50
2022-08-20T04:37:05.021Z,22.50
2022-08-20T04:39:33.264Z,22.40
2022-08-20T04:42:00.457Z,22.50
2022-08-20T04:44:28.877Z,22.50
2022-08-20T04:46:58.021Z,22.50
2022-08-20T04:49:26.403Z,22.40
2022-08-20T04:51:54.896Z,22.40
2022-08-20T04:54:24.403Z,22.40
2022-08-20T04:56:52.717Z,22.50
2022-08-20T04:59:21.016Z,22.50
2022-08-20T05:01:49.134Z,22.50
2022-08-20T05:04:17.317Z,22.60
2022-08-20T05:06:45.478Z,22.60
2022-08-20T05:09:13.631Z,22.60
2022-08-20T05:11:43.154Z,22.60
2022-08-20T05:14:11.447Z,22.60
2022-08-20T05:16:41.206Z,22.60
2022-08-20T05:19:11.497Z,22.60
2022-08-20T05:21:40.200Z,22.70
2022-08-20T05:24:10.238Z,22.60
2022-08-20T05:26:38.470Z,22.60
2022-08-20T05:29:08.030Z,22.70
2022-08-20T05:31:38.488Z,22.70
2022-08-20T05:34:10.366Z,22.70
2022-08-20T05:36:39.710Z,22.70
2022-08-20T05:39:08.891Z,22.70
2022-08-20T05:41:37.856Z,22.70
2022-08-20T05:44:10.661Z,22.70
2022-08-20T05:46:40.963Z,22.70
2022-08-20T05:49:09.502Z,22.70
2022-08-20T05:51:38.023Z,22.70
2022-08-20T05:54:07.440Z,22.70
2022-08-20T05:56:37.268Z,22.70
2022-08-20T05:59:08.716Z,22.70
2022-08-20T06:01:39.053Z,22.70
2022-08-20T06:04:26.673Z,22.80
2022-08-20T06:06:56.602Z,22.80
2022-08-20T06:09:31.302Z,22.80
2022-08-20T06:12:00.904Z,22.80
2022-08-20T06:14:31.002Z,22.80
2022-08-20T06:17:04.924Z,22.90
2022-08-20T06:19:34.085Z,22.90
2022-08-20T06:22:02.285Z,22.80
2022-08-20T06:24:37.219Z,22.80
2022-08-20T06:27:06.896Z,22.80
2022-08-20T06:29:37.744Z,22.80
2022-08-20T06:32:06.444Z,22.80
2022-08-20T06:34:34.588Z,22.80
2022-08-20T06:37:02.672Z,22.80
2022-08-20T06:39:31.369Z,22.80
2022-08-20T06:41:59.749Z,22.80
2022-08-20T06:44:28.529Z,22.80
2022-08-20T06:47:03.887Z,22.90
2022-08-20T06:49:35.204Z,22.90
2022-08-20T06:52:04.475Z,22.90
2022-08-20T06:54:34.369Z,22.90
2022-08-20T06:57:02.552Z,22.90
2022-08-20T06:59:31.202Z,23.00
2022-08-20T07:02:00.771Z,23.00
2022-08-20T07:04:29.032Z,23.00
2022-08-20T07:06:57.729Z,23.00
2022-08-20T07:09:27.158Z,23.00
2022-08-20T07:11:56.187Z,23.00
2022-08-20T07:14:24.276Z,23.00
2022-08-20T07:16:52.492Z,23.00
2022-08-20T07:19:22.360Z,23.00
2022-08-20T07:21:50.803Z,23.00
2022-08-20T07:24:19.352Z,22.90
2022-08-20T07:26:47.600Z,22.90
2022-08-20T07:29:15.759Z,23.00
2022-08-20T07:32:01.512Z,23.00
2022-08-20T07:34:32.737Z,22.90
2022-08-20T07:37:01.365Z,23.00
2022-08-20T07:39:30.049Z,22.90
2022-08-20T07:42:04.184Z,23.00
2022-08-20T07:44:32.401Z,22.90
2022-08-20T07:47:00.813Z,23.00
2022-08-20T07:49:28.882Z,23.00
2022-08-20T07:51:58.435Z,22.90
2022-08-20T07:54:30.355Z,22.90
2022-08-20T07:57:02.562Z,22.90
2022-08-20T07:59:31.530Z,22.90
2022-08-20T08:01:59.710Z,22.80
2022-08-20T08:04:27.887Z,22.80
2022-08-20T08:07:00.242Z,22.80
2022-08-20T08:09:29.606Z,22.90
2022-08-20T08:12:00.703Z,22.90
2022-08-20T08:14:31.542Z,22.90
2022-08-20T08:17:03.542Z,23.00
2022-08-20T08:19:38.882Z,23.10
2022-08-20T08:22:11.519Z,23.00
2022-08-20T08:24:40.119Z,23.00
2022-08-20T08:27:09.067Z,23.00
2022-08-20T08:29:40.610Z,23.00
2022-08-20T08:32:09.133Z,23.10
2022-08-20T08:34:38.283Z,23.10
2022-08-20T08:37:07.083Z,23.10
2022-08-20T08:39:36.688Z,23.10
2022-08-20T08:42:22.094Z,23.10
2022-08-20T08:44:50.875Z,23.10
2022-08-20T08:47:30.449Z,23.10
2022-08-20T08:49:59.392Z,23.10
2022-08-20T08:52:31.572Z,23.10
2022-08-20T08:55:03.716Z,23.20
2022-08-20T08:57:32.287Z,23.20
2022-08-20T09:00:05.167Z,23.30
2022-08-20T09:02:35.537Z,23.40
2022-08-20T09:05:14.723Z,23.50
2022-08-20T09:07:54.279Z,23.60
2022-08-20T09:10:24.952Z,23.80
2022-08-20T09:12:53.364Z,23.90
2022-08-20T09:15:22.707Z,24.00
2022-08-20T09:17:50.989Z,24.20
2022-08-20T09:20:19.544Z,24.20
2022-08-20T09:22:51.320Z,24.20
2022-08-20T09:25:21.558Z,24.20
2022-08-20T09:27:51.415Z,24.20
2022-08-20T09:30:20.433Z,24.20
2022-08-20T09:32:48.701Z,24.20
2022-08-20T09:35:16.889Z,24.20
2022-08-20T09:37:46.937Z,24.20
2022-08-20T09:40:21.361Z,24.30
2022-08-20T09:42:52.043Z,24.30
2022-08-20T09:45:21.099Z,24.40
2022-08-20T09:47:54.960Z,24.40
2022-08-20T09:50:25.165Z,24.40
2022-08-20T09:52:55.566Z,24.40
2022-08-20T09:55:29.885Z,24.40
2022-08-20T09:58:00.787Z,24.50
2022-08-20T10:00:29.105Z,24.60
2022-08-20T10:02:57.261Z,24.60
2022-08-20T10:05:25.360Z,24.70
2022-08-20T10:07:54.276Z,24.70
2022-08-20T10:10:22.455Z,24.70
2022-08-20T10:12:54.752Z,24.70
2022-08-20T10:15:24.455Z,24.60
2022-08-20T10:17:52.690Z,24.70
2022-08-20T10:20:20.970Z,24.80
2022-08-20T10:22:49.176Z,24.80
2022-08-20T10:25:17.977Z,24.90
2022-08-20T10:27:46.836Z,24.90
2022-08-20T10:30:15.130Z,25.10
2022-08-20T10:32:44.803Z,25.20
2022-08-20T10:35:12.923Z,25.20
2022-08-20T10:37:41.100Z,25.20
2022-08-20T10:40:11.151Z,25.30
2022-08-20T10:42:42.612Z,25.30
2022-08-20T10:45:11.635Z,25.30
2022-08-20T10:47:40.429Z,25.30
2022-08-20T10:50:13.709Z,25.40
2022-08-20T10:52:42.028Z,25.50
2022-08-20T10:55:10.821Z,25.50
2022-08-20T10:57:41.144Z,25.60
2022-08-20T11:00:10.901Z,25.60
2022-08-20T11:02:39.097Z,25.60
2022-08-20T11:05:10.876Z,25.70
2022-08-20T11:07:59.842Z,25.70
2022-08-20T11:10:30.258Z,25.70
2022-08-20T11:12:58.461Z,25.60
2022-08-20T11:15:26.923Z,25.70
2022-08-20T11:17:55.378Z,25.70
2022-08-20T11:20:26.480Z,25.80
2022-08-20T11:22:55.459Z,25.80
2022-08-20T11:25:23.723Z,25.90
2022-08-20T11:27:53.096Z,25.90
2022-08-20T11:30:25.380Z,26.00
2022-08-20T11:32:53.750Z,25.90
2022-08-20T11:35:42.266Z,25.90
2022-08-20T11:38:13.783Z,25.90
2022-08-20T11:40:41.966Z,25.80
2022-08-20T11:43:14.615Z,25.80
2022-08-20T11:45:43.801Z,25.80
2022-08-20T11:48:11.896Z,25.70
2022-08-20T11:50:40.111Z,25.60
2022-08-20T11:53:08.343Z,25.60
2022-08-20T11:55:38.665Z,25.50
2022-08-20T11:58:07.900Z,25.50
2022-08-20T12:00:37.067Z,25.50
2022-08-20T12:03:08.916Z,25.40
2022-08-20T12:05:38.042Z,25.40
2022-08-20T12:08:06.974Z,25.30
2022-08-20T12:10:35.400Z,25.40
2022-08-20T12:13:05.655Z,25.40
2022-08-20T12:15:33.924Z,25.40
2022-08-20T12:18:02.362Z,25.50
2022-08-20T12:20:30.681Z,25.50
2022-08-20T12:22:59.081Z,25.60
2022-08-20T12:25:27.764Z,25.60
2022-08-20T12:27:56.484Z,25.60
2022-08-20T12:30:26.657Z,25.60
2022-08-20T12:32:54.714Z,25.70
2022-08-20T12:35:23.037Z,25.70
2022-08-20T12:37:51.604Z,25.80
2022-08-20T12:40:31.808Z,25.80
2022-08-20T12:43:01.079Z,25.80
2022-08-20T12:45:31.009Z,25.70
2022-08-20T12:48:03.238Z,25.70
2022-08-20T12:50:32.128Z,25.70
2022-08-20T12:53:00.811Z,25.70
2022-08-20T12:55:29.476Z,25.80
2022-08-20T12:58:01.209Z,25.80
2022-08-20T13:00:33.045Z,25.80
2022-08-20T13:03:03.463Z,25.90
2022-08-20T13:05:32.541Z,25.90
2022-08-20T13:08:01.284Z,25.90
2022-08-20T13:10:32.303Z,25.80
2022-08-20T13:13:02.166Z,25.70
2022-08-20T13:15:32.700Z,25.70
2022-08-20T13:18:03.471Z,25.60
2022-08-20T13:20:34.679Z,25.50
2022-08-20T13:23:04.047Z,25.50
2022-08-20T13:25:33.085Z,25.50
2022-08-20T13:28:04.038Z,25.40
2022-08-20T13:30:37.370Z,25.30
2022-08-20T13:33:05.671Z,25.30
2022-08-20T13:35:34.011Z,25.20
2022-08-20T13:38:02.160Z,25.20
2022-08-20T13:40:30.347Z,25.10
2022-08-20T13:42:59.409Z,25.00
2022-08-20T13:45:29.325Z,25.00
2022-08-20T13:47:58.920Z,24.90
2022-08-20T13:50:28.063Z,24.80
2022-08-20T13:52:56.472Z,24.80
2022-08-20T13:55:28.139Z,24.80
2022-08-20T13:57:58.410Z,24.70
2022-08-20T14:00:31.398Z,24.60
2022-08-20T14:03:02.214Z,24.60
2022-08-20T14:05:31.022Z,24.50
2022-08-20T14:08:07.464Z,24.50
2022-08-20T14:10:36.059Z,24.40
2022-08-20T14:13:05.769Z,24.30
2022-08-20T14:15:34.045Z,24.30
2022-08-20T14:18:03.672Z,24.20
2022-08-20T14:20:33.619Z,24.20
2022-08-20T14:23:03.038Z,24.20
2022-08-20T14:25:32.802Z,24.30
2022-08-20T14:28:10.903Z,24.30
2022-08-20T14:30:39.246Z,24.30
2022-08-20T14:33:08.828Z,24.40
2022-08-20T14:35:37.105Z,24.50
2022-08-20T14:38:05.627Z,24.50
2022-08-20T14:40:34.550Z,24.60
2022-08-20T14:43:03.346Z,24.60
2022-08-20T14:45:31.530Z,24.70
2022-08-20T14:48:00.221Z,24.80
2022-08-20T14:50:32.479Z,24.80
2022-08-20T14:53:01.629Z,24.80
2022-08-20T14:55:32.251Z,24.90
2022-08-20T14:58:01.105Z,25.00
2022-08-20T15:00:34.000Z,25.00
2022-08-20T15:03:02.404Z,25.00
2022-08-20T15:05:32.370Z,25.00
2022-08-20T15:08:01.169Z,25.00
2022-08-20T15:10:31.532Z,24.90
2022-08-20T15:13:00.202Z,24.90
2022-08-20T15:15:28.373Z,24.90
2022-08-20T15:18:00.241Z,24.80
2022-08-20T15:20:32.431Z,24.80
2022-08-20T15:23:01.683Z,24.80
2022-08-20T15:25:36.733Z,24.80
2022-08-20T15:28:08.509Z,24.80
2022-08-20T15:30:38.167Z,24.80
2022-08-20T15:33:06.328Z,24.70
2022-08-20T15:35:36.029Z,24.70
2022-08-20T15:38:04.399Z,24.60
2022-08-20T15:40:34.204Z,24.60
2022-08-20T15:43:04.817Z,24.50
2022-08-20T15:45:33.972Z,24.50
2022-08-20T15:48:09.361Z,24.50
2022-08-20T15:51:01.696Z,24.40
2022-08-20T15:53:36.524Z,24.40
2022-08-20T15:56:11.310Z,24.40
2022-08-20T15:58:52.603Z,24.30
2022-08-20T16:01:31.159Z,24.30
2022-08-20T16:04:26.974Z,24.30
2022-08-20T16:07:02.549Z,24.20
2022-08-20T16:09:41.745Z,24.20
2022-08-20T16:12:12.202Z,24.20
2022-08-20T16:14:42.866Z,24.10
2022-08-20T16:17:14.728Z,24.10
2022-08-20T16:19:52.545Z,24.10
2022-08-20T16:22:22.495Z,24.10
2022-08-20T16:24:51.767Z,24.00
2022-08-20T16:27:29.023Z,24.00
2022-08-20T16:30:03.086Z,24.00
2022-08-20T16:32:39.946Z,24.00
2022-08-20T16:35:26.209Z,24.00
2022-08-20T16:38:11.042Z,24.00
2022-08-20T16:40:49.709Z,24.00
2022-08-20T16:43:22.893Z,23.90
2022-08-20T16:45:56.682Z,23.90
2022-08-20T16:48:35.004Z,23.90
2022-08-20T16:51:06.714Z,23.90
2022-08-20T16:53:36.737Z,23.90
2022-08-20T16:56:05.572Z,23.90
2022-08-20T16:58:33.749Z,23.90
2022-08-20T17:01:10.193Z,23.90
2022-08-20T17:03:40.196Z,23.90
2022-08-20T17:06:18.153Z,23.90
2022-08-20T17:08:51.274Z,23.90
2022-08-20T17:11:26.354Z,23.80
2022-08-20T17:14:09.505Z,23.80
2022-08-20T17:16:41.605Z,23.80
2022-08-20T17:19:14.680Z,23.80
2022-08-20T17:21:43.112Z,23.80
2022-08-20T17:24:20.287Z,23.80
2022-08-20T17:26:51.442Z,23.70
2022-08-20T17:29:24.731Z,23.70
2022-08-20T17:31:56.135Z,23.70
2022-08-20T17:34:26.656Z,23.70
2022-08-20T17:36:58.504Z,23.70
2022-08-20T17:39:29.749Z,23.70
2022-08-20T17:42:06.532Z,23.70
2022-08-20T17:44:38.256Z,23.70
2022-08-20T17:47:12.323Z,23.70
2022-08-20T17:49:44.276Z,23.60
2022-08-20T17:52:31.443Z,23.60
2022-08-20T17:55:03.844Z,23.60
2022-08-20T17:57:38.364Z,23.60
2022-08-20T18:00:14.208Z,23.60
2022-08-20T18:02:42.829Z,23.50
2022-08-20T18:05:18.975Z,23.50
2022-08-20T18:07:59.756Z,23.50
2022-08-20T18:10:30.879Z,23.50
2022-08-20T18:13:05.611Z,23.50
2022-08-20T18:15:39.804Z,23.40
2022-08-20T18:18:17.994Z,23.40
2022-08-20T18:21:15.237Z,23.30
2022-08-20T18:23:48.736Z,23.30
2022-08-20T18:26:24.126Z,23.20
2022-08-20T18:28:57.740Z,23.20
2022-08-20T18:31:30.155Z,23.10
2022-08-20T18:33:58.762Z,23.10
2022-08-20T18:36:30.364Z,23.10
2022-08-20T18:39:05.487Z,23.00
2022-08-20T18:41:38.371Z,23.00
2022-08-20T18:44:10.153Z,23.00
2022-08-20T18:46:51.081Z,23.00
2022-08-20T18:49:28.669Z,22.90
2022-08-20T18:51:57.736Z,23.00
2022-08-20T18:54:29.636Z,22.90
2022-08-20T18:57:07.870Z,22.90
2022-08-20T18:59:43.960Z,23.00
2022-08-20T19:02:20.104Z,23.00
2022-08-20T19:04:56.634Z,23.00
2022-08-20T19:07:45.822Z,22.90
2022-08-20T19:10:40.869Z,22.90
2022-08-20T19:13:25.230Z,22.90
2022-08-20T19:16:00.361Z,22.90
2022-08-20T19:18:34.660Z,22.90
2022-08-20T19:21:05.709Z,22.90
2022-08-20T19:23:50.020Z,22.90
2022-08-20T19:26:25.908Z,22.80
2022-08-20T19:28:59.007Z,22.80
2022-08-20T19:31:29.302Z,22.80
2022-08-20T19:34:04.105Z,22.90
2022-08-20T19:36:53.811Z,22.90
2022-08-20T19:39:25.627Z,22.90
2022-08-20T19:41:58.460Z,22.90
2022-08-20T19:44:34.161Z,22.90
2022-08-20T19:47:03.132Z,22.90
2022-08-20T19:49:42.903Z,22.80
2022-08-20T19:52:25.883Z,22.90
2022-08-20T19:55:01.302Z,22.80
2022-08-20T19:57:31.786Z,22.80
2022-08-20T20:00:05.024Z,22.80
2022-08-20T20:02:34.595Z,22.80
2022-08-20T20:05:06.810Z,22.80
2022-08-20T20:07:39.949Z,22.80
2022-08-20T20:10:11.920Z,22.80
2022-08-20T20:12:40.675Z,22.70
2022-08-20T20:15:10.907Z,22.70
2022-08-20T20:17:39.653Z,22.70
2022-08-20T20:20:22.372Z,22.80
2022-08-20T20:22:53.840Z,22.70
2022-08-20T20:25:25.237Z,22.70
2022-08-20T20:27:55.725Z,22.70
2022-08-20T20:30:29.713Z,22.70
2022-08-20T20:32:59.599Z,22.70
2022-08-20T20:35:32.169Z,22.70
2022-08-20T20:38:04.173Z,22.70
2022-08-20T20:40:36.069Z,22.60
2022-08-20T20:43:07.490Z,22.60
2022-08-20T20:45:40.627Z,22.60
2022-08-20T20:48:20.670Z,22.60
2022-08-20T20:50:51.094Z,22.70
2022-08-20T20:53:50.890Z,22.60
2022-08-20T20:56:33.512Z,22.60
2022-08-20T20:59:06.607Z,22.60
2022-08-20T21:01:48.489Z,22.60
2022-08-20T21:04:19.477Z,22.50
2022-08-20T21:06:47.733Z,22.50
2022-08-20T21:09:16.292Z,22.50
2022-08-20T21:11:44.432Z,22.50
2022-08-20T21:14:12.645Z,22.50
2022-08-20T21:16:42.394Z,22.60
2022-08-20T21:19:11.883Z,22.50
2022-08-20T21:21:41.456Z,22.50
2022-08-20T21:24:09.961Z,22.50
2022-08-20T21:26:38.707Z,22.50
2022-08-20T21:29:08.339Z,22.60
2022-08-20T21:31:40.156Z,22.60
2022-08-20T21:34:14.373Z,22.60
2022-08-20T21:36:43.216Z,22.60
2022-08-20T21:39:11.685Z,22.60
2022-08-20T21:41:55.164Z,22.60
2022-08-20T21:44:25.996Z,22.60
2022-08-20T21:46:56.201Z,22.60
2022-08-20T21:49:27.503Z,22.50
2022-08-20T21:51:56.370Z,22.50
2022-08-20T21:54:26.288Z,22.50
2022-08-20T21:56:58.081Z,22.50
2022-08-20T21:59:26.894Z,22.40
2022-08-20T22:01:55.426Z,22.40
2022-08-20T22:04:25.007Z,22.40
2022-08-20T22:06:53.171Z,22.30
2022-08-20T22:09:21.378Z,22.30
2022-08-20T22:11:54.012Z,22.30
2022-08-20T22:14:23.590Z,22.30
2022-08-20T22:16:51.786Z,22.20
2022-08-20T22:19:20.124Z,22.20
2022-08-20T22:21:50.343Z,22.20
2022-08-20T22:24:18.484Z,22.20
2022-08-20T22:26:46.623Z,22.10
2022-08-20T22:29:14.840Z,22.20
2022-08-20T22:31:44.472Z,22.20
2022-08-20T22:34:14.062Z,22.20
2022-08-20T22:36:42.497Z,22.20
2022-08-20T22:39:12.082Z,22.20
2022-08-20T22:41:41.201Z,22.20
2022-08-20T22:44:09.469Z,22.20
2022-08-20T22:46:43.645Z,22.20
2022-08-20T22:49:19.484Z,22.10
2022-08-20T22:51:47.593Z,22.10
2022-08-20T22:54:20.709Z,22.10
2022-08-20T22:56:48.994Z,22.10
2022-08-20T22:59:19.426Z,22.10
2022-08-20T23:01:47.831Z,22.10
2022-08-20T23:04:25.238Z,22.10
2022-08-20T23:06:53.520Z,22.10
2022-08-20T23:09:23.148Z,22.10
2022-08-20T23:11:53.142Z,22.10
2022-08-20T23:14:21.902Z,22.10
2022-08-20T23:17:04.584Z,22.10
2022-08-20T23:19:32.782Z,22.10
2022-08-20T23:22:00.913Z,22.00
2022-08-20T23:24:30.522Z,22.10
2022-08-20T23:26:58.781Z,22.00
2022-08-20T23:29:27.575Z,22.10
2022-08-20T23:31:56.856Z,22.10
2022-08-20T23:34:25.738Z,22.00
2022-08-20T23:36:55.258Z,22.00
2022-08-20T23:39:23.836Z,22.00
2022-08-20T23:41:53.333Z,22.00
2022-08-20T23:44:25.288Z,22.00
2022-08-20T23:46:55.715Z,21.90
2022-08-20T23:49:23.814Z,21.90
2022-08-20T23:51:51.915Z,21.90
2022-08-20T23:54:20.077Z,21.90
2022-08-20T23:56:48.359Z,21.80
2022-08-20T23:59:17.954Z,21.80
